createdAt,value
2023-03-05T00:03:40.970Z,82.17
2023-03-05T00:07:18.598Z,82.35
2023-03-05T00:10:11.965Z,81.95
2023-03-05T00:13:39.142Z,82.00
2023-03-05T00:16:53.298Z,82.36
2023-03-05T00:19:41.033Z,81.97
2023-03-05T00:23:03.382Z,82.55
2023-03-05T00:26:12.272Z,82.61
2023-03-05T00:28:58.632Z,82.37
2023-03-05T00:31:59.045Z,82.57
2023-03-05T00:35:37.883Z,82.67
2023-03-05T00:38:36.248Z,82.63
2023-03-05T00:42:13.318Z,82.52
2023-03-05T00:45:19.705Z,82.16
2023-03-05T00:48:47.487Z,82.37
2023-03-05T00:52:13.547Z,82.46
2023-03-05T00:55:44.774Z,82.17
2023-03-05T00:59:32.178Z,82.11
2023-03-05T01:03:19.620Z,82.23
2023-03-05T01:06:35.922Z,83.14
2023-03-05T01:10:04.795Z,83.83
2023-03-05T01:13:27.355Z,84.58
2023-03-05T01:17:14.590Z,84.95
2023-03-05T01:21:03.396Z,85.57
2023-03-05T01:24:08.950Z,86.32
2023-03-05T01:27:26.074Z,86.37
2023-03-05T01:30:48.578Z,87.01
2023-03-05T01:34:13.417Z,87.57
2023-03-05T01:37:21.824Z,87.40
2023-03-05T01:40:50.317Z,88.38
2023-03-05T01:44:39.144Z,87.95
2023-03-05T01:48:27.980Z,88.78
2023-03-05T01:51:52.748Z,89.19
2023-03-05T01:55:25.746Z,89.38
2023-03-05T01:58:38.117Z,90.07
2023-03-05T02:02:26.967Z,90.25
2023-03-05T02:06:04.279Z,90.93
2023-03-05T02:09:45.998Z,90.86
2023-03-05T02:13:36.941Z,91.15
2023-03-05T02:16:59.632Z,92.12
2023-03-05T02:20:35.800Z,91.63
2023-03-05T02:24:00.892Z,92.65
2023-03-05T02:27:46.647Z,92.57
2023-03-05T02:31:34.479Z,93.42
2023-03-05T02:35:11.021Z,94.00
2023-03-05T02:38:41.929Z,94.69
2023-03-05T02:42:09.317Z,94.75
2023-03-05T02:45:46.119Z,95.29
2023-03-05T02:49:05.763Z,95.26
2023-03-05T02:52:29.033Z,95.60
2023-03-05T02:55:56.136Z,95.42
2023-03-05T02:59:33.868Z,96.18
2023-03-05T03:03:11.227Z,96.06
2023-03-05T03:06:16.114Z,95.78
2023-03-05T03:09:26.163Z,95.82
2023-03-05T03:13:08.749Z,96.18
2023-03-05T03:16:07.930Z,96.48
2023-03-05T03:18:56.429Z,97.10
2023-03-05T03:22:02.420Z,96.92
2023-03-05T03:24:53.791Z,97.25
2023-03-05T03:27:22.806Z,97.77
2023-03-05T03:30:14.424Z,98.20
2023-03-05T03:33:03.491Z,98.20
2023-03-05T03:35:59.469Z,97.92
2023-03-05T03:39:10.970Z,97.81
2023-03-05T03:41:51.590Z,98.81
2023-03-05T03:44:25.113Z,98.16
2023-03-05T03:46:54.646Z,98.43
2023-03-05T03:50:04.434Z,98.48
2023-03-05T03:53:03.540Z,98.79
2023-03-05T03:55:53.989Z,98.59
2023-03-05T03:58:49.702Z,98.64
2023-03-05T04:01:47.217Z,98.99
2023-03-05T04:04:45.688Z,98.68
2023-03-05T04:08:08.435Z,98.50
2023-03-05T04:11:09.746Z,99.04
2023-03-05T04:14:26.551Z,99.34
2023-03-05T04:17:26.485Z,98.96
2023-03-05T04:20:43.659Z,99.07
2023-03-05T04:24:14.665Z,98.80
2023-03-05T04:27:00.237Z,99.18
2023-03-05T04:30:39.004Z,99.19
2023-03-05T04:33:27.659Z,99.80
2023-03-05T04:36:40.488Z,99.45
2023-03-05T04:39:21.332Z,99.42
2023-03-05T04:42:09.639Z,99.63
2023-03-05T04:44:43.385Z,99.01
2023-03-05T04:47:37.180Z,99.42
2023-03-05T04:50:39.021Z,99.30
2023-03-05T04:53:42.331Z,99.80
2023-03-05T04:56:38.149Z,99.47
2023-03-05T04:59:15.433Z,99.69
2023-03-05T05:02:44.268Z,99.66
2023-03-05T05:05:43.441Z,99.75
2023-03-05T05:08:54.407Z,99.71
2023-03-05T05:11:42.386Z,99.76
2023-03-05T05:15:08.569Z,99.55
2023-03-05T05:17:59.620Z,99.91
2023-03-05T05:20:35.431Z,99.91
2023-03-05T05:23:18.841Z,99.63
2023-03-05T05:26:15.627Z,99.57
2023-03-05T05:28:48.949Z,99.72
2023-03-05T05:32:04.578Z,99.96
2023-03-05T05:35:17.623Z,99.99
2023-03-05T05:38:11.594Z,99.73
2023-03-05T05:41:43.238Z,99.90
2023-03-05T05:44:31.407Z,99.97
2023-03-05T05:47:35.951Z,100.00
2023-03-05T05:50:28.508Z,99.97
2023-03-05T05:53:23.322Z,100.00
2023-03-05T05:56:34.377Z,100.00
2023-03-05T05:59:43.717Z,100.00
2023-03-05T06:02:35.121Z,100.00
2023-03-05T06:05:46.204Z,100.00
2023-03-05T06:08:28.401Z,100.00
2023-03-05T06:10:58.917Z,100.00
2023-03-05T06:13:58.690Z,100.00
2023-03-05T06:16:39.479Z,100.00
2023-03-05T06:19:19.196Z,100.00
2023-03-05T06:21:50.497Z,100.00
2023-03-05T06:24:19.332Z,100.00
2023-03-05T06:26:49.914Z,100.00
2023-03-05T06:29:25.728Z,100.00
2023-03-05T06:32:01.354Z,100.00
2023-03-05T06:34:29.514Z,100.00
2023-03-05T06:36:57.497Z,100.00
2023-03-05T06:39:35.989Z,100.00
2023-03-05T06:42:07.208Z,100.00
2023-03-05T06:44:37.676Z,100.00
2023-03-05T06:47:09.307Z,100.00
2023-03-05T06:49:38.915Z,100.00
2023-03-05T06:52:17.814Z,100.00
2023-03-05T06:54:46.219Z,100.00
2023-03-05T06:57:14.173Z,100.00
2023-03-05T06:59:45.162Z,100.00
2023-03-05T07:02:14.148Z,100.00
2023-03-05T07:04:42.439Z,100.00
2023-03-05T07:07:20.695Z,100.00
2023-03-05T07:09:50.309Z,100.00
2023-03-05T07:12:21.363Z,100.00
2023-03-05T07:14:58.726Z,100.00
2023-03-05T07:17:56.978Z,100.00
2023-03-05T07:20:25.071Z,100.00
2023-03-05T07:22:53.246Z,100.00
2023-03-05T07:25:24.711Z,100.00
2023-03-05T07:27:52.681Z,100.00
2023-03-05T07:30:21.114Z,99.95
2023-03-05T07:32:53.629Z,99.91
2023-03-05T07:35:24.643Z,100.00
2023-03-05T07:37:55.918Z,99.80
2023-03-05T07:40:26.847Z,99.55
2023-03-05T07:42:58.114Z,99.44
2023-03-05T07:45:32.727Z,99.11
2023-03-05T07:48:00.770Z,99.34
2023-03-05T07:50:28.880Z,99.31
2023-03-05T07:53:02.673Z,99.03
2023-03-05T07:55:49.635Z,99.02
2023-03-05T07:58:23.191Z,99.37
2023-03-05T08:01:06.734Z,99.12
2023-03-05T08:04:15.221Z,99.41
2023-03-05T08:07:23.887Z,99.44
2023-03-05T08:10:00.838Z,98.93
2023-03-05T08:13:26.851Z,98.78
2023-03-05T08:16:50.437Z,98.58
2023-03-05T08:19:24.265Z,98.52
2023-03-05T08:22:13.658Z,98.39
2023-03-05T08:25:03.697Z,97.21
2023-03-05T08:28:02.389Z,97.20
2023-03-05T08:30:48.887Z,97.34
2023-03-05T08:33:26.687Z,96.30
2023-03-05T08:36:13.257Z,96.92
2023-03-05T08:38:47.824Z,96.86
2023-03-05T08:41:20.366Z,96.76
2023-03-05T08:43:51.856Z,95.90
2023-03-05T08:46:53.832Z,96.08
2023-03-05T08:49:24.995Z,95.45
2023-03-05T08:51:55.715Z,95.57
2023-03-05T08:54:23.785Z,94.84
2023-03-05T08:57:01.433Z,94.68
2023-03-05T08:59:30.142Z,94.71
2023-03-05T09:02:02.557Z,94.57
2023-03-05T09:04:30.406Z,94.48
2023-03-05T09:06:58.553Z,94.58
2023-03-05T09:09:30.192Z,94.41
2023-03-05T09:11:59.546Z,94.51
2023-03-05T09:14:28.684Z,94.60
2023-03-05T09:16:57.561Z,94.80
2023-03-05T09:19:27.460Z,93.81
2023-03-05T09:21:57.121Z,93.42
2023-03-05T09:24:28.665Z,94.15
2023-03-05T09:27:00.417Z,93.41
2023-03-05T09:29:29.987Z,93.64
2023-03-05T09:32:00.589Z,93.36
2023-03-05T09:34:28.834Z,93.53
2023-03-05T09:36:59.886Z,93.70
2023-03-05T09:39:38.305Z,93.70
2023-03-05T09:42:20.750Z,93.03
2023-03-05T09:45:08.918Z,92.82
2023-03-05T09:48:13.122Z,93.18
2023-03-05T09:51:04.395Z,92.51
2023-03-05T09:54:41.794Z,91.84
2023-03-05T09:57:44.667Z,92.20
2023-03-05T10:00:49.247Z,92.69
2023-03-05T10:03:59.217Z,92.40
2023-03-05T10:07:02.996Z,93.02
2023-03-05T10:09:43.528Z,92.59
2023-03-05T10:12:48.921Z,93.51
2023-03-05T10:16:19.227Z,92.14
2023-03-05T10:19:04.055Z,92.91
2023-03-05T10:22:11.977Z,93.03
2023-03-05T10:25:22.770Z,92.77
2023-03-05T10:28:23.069Z,92.55
2023-03-05T10:31:27.445Z,92.47
2023-03-05T10:34:44.313Z,92.49
2023-03-05T10:37:27.371Z,91.33
2023-03-05T10:40:11.075Z,91.81
2023-03-05T10:43:31.364Z,92.18
2023-03-05T10:46:04.593Z,92.00
2023-03-05T10:48:52.299Z,91.22
2023-03-05T10:51:26.086Z,91.80
2023-03-05T10:53:59.149Z,91.96
2023-03-05T10:56:29.242Z,92.10
2023-03-05T10:58:59.832Z,92.35
2023-03-05T11:01:33.074Z,92.28
2023-03-05T11:04:30.387Z,91.80
2023-03-05T11:06:58.356Z,91.80
2023-03-05T11:09:45.601Z,92.28
2023-03-05T11:12:29.683Z,92.78
2023-03-05T11:15:34.549Z,92.29
2023-03-05T11:18:23.078Z,92.31
2023-03-05T11:21:11.130Z,92.29
2023-03-05T11:23:41.443Z,92.92
2023-03-05T11:26:12.403Z,93.20
2023-03-05T11:29:04.820Z,93.55
2023-03-05T11:31:33.646Z,93.65
2023-03-05T11:34:24.419Z,94.19
2023-03-05T11:36:58.383Z,94.41
2023-03-05T11:39:30.330Z,94.47
2023-03-05T11:42:03.574Z,94.83
2023-03-05T11:44:44.154Z,95.46
2023-03-05T11:47:18.427Z,95.36
2023-03-05T11:49:50.752Z,95.84
2023-03-05T11:52:32.142Z,96.43
2023-03-05T11:55:16.085Z,96.76
2023-03-05T11:57:52.944Z,97.56
2023-03-05T12:00:31.985Z,97.70
2023-03-05T12:03:07.824Z,97.79
2023-03-05T12:05:39.067Z,97.96
2023-03-05T12:08:14.932Z,98.52
2023-03-05T12:10:45.406Z,98.75
2023-03-05T12:13:37.403Z,98.96
2023-03-05T12:16:15.888Z,99.18
2023-03-05T12:18:52.780Z,99.59
2023-03-05T12:21:44.584Z,99.95
2023-03-05T12:24:28.472Z,100.00
2023-03-05T12:27:02.367Z,100.00
2023-03-05T12:29:33.345Z,100.00
2023-03-05T12:32:02.812Z,100.00
2023-03-05T12:34:40.569Z,100.00
2023-03-05T12:37:34.418Z,100.00
2023-03-05T12:40:34.608Z,100.00
2023-03-05T12:43:28.595Z,100.00
2023-03-05T12:46:25.797Z,100.00
2023-03-05T12:48:53.823Z,100.00
2023-03-05T12:51:37.847Z,100.00
2023-03-05T12:54:40.952Z,100.00
2023-03-05T12:57:29.681Z,100.00
2023-03-05T13:00:14.486Z,100.00
2023-03-05T13:02:58.507Z,100.00
2023-03-05T13:05:37.350Z,100.00
2023-03-05T13:08:15.549Z,100.00
2023-03-05T13:10:52.418Z,100.00
2023-03-05T13:13:21.627Z,100.00
2023-03-05T13:15:53.620Z,100.00
2023-03-05T13:18:42.133Z,100.00
2023-03-05T13:21:29.673Z,100.00
2023-03-05T13:24:05.591Z,100.00
2023-03-05T13:26:40.190Z,100.00
2023-03-05T13:29:14.263Z,100.00
2023-03-05T13:31:51.998Z,100.00
2023-03-05T13:34:46.183Z,100.00
2023-03-05T13:37:18.915Z,100.00
2023-03-05T13:39:57.734Z,100.00
2023-03-05T13:42:28.590Z,100.00
2023-03-05T13:45:20.485Z,100.00
2023-03-05T13:48:00.561Z,100.00
2023-03-05T13:50:40.257Z,100.00
2023-03-05T13:53:23.273Z,100.00
2023-03-05T13:55:56.475Z,100.00
2023-03-05T13:58:47.540Z,100.00
2023-03-05T14:01:40.779Z,100.00
2023-03-05T14:04:20.514Z,100.00
2023-03-05T14:07:29.354Z,100.00
2023-03-05T14:09:57.982Z,100.00
2023-03-05T14:12:40.816Z,100.00
2023-03-05T14:15:22.770Z,100.00
2023-03-05T14:18:39.182Z,100.00
2023-03-05T14:21:24.784Z,100.00
2023-03-05T14:24:56.509Z,100.00
2023-03-05T14:27:41.563Z,100.00
2023-03-05T14:31:12.429Z,100.00
2023-03-05T14:34:03.791Z,100.00
2023-03-05T14:36:52.740Z,100.00
2023-03-05T14:40:09.867Z,100.00
2023-03-05T14:43:21.423Z,100.00
2023-03-05T14:46:04.510Z,100.00
2023-03-05T14:48:56.651Z,100.00
2023-03-05T14:51:29.535Z,100.00
2023-03-05T14:54:01.096Z,100.00
2023-03-05T14:56:39.397Z,100.00
2023-03-05T14:59:09.508Z,100.00
2023-03-05T15:01:37.720Z,100.00
2023-03-05T15:04:10.674Z,100.00
2023-03-05T15:06:41.148Z,100.00
2023-03-05T15:09:12.357Z,100.00
2023-03-05T15:11:40.476Z,100.00
2023-03-05T15:14:10.332Z,100.00
2023-03-05T15:16:42.182Z,100.00
2023-03-05T15:19:13.709Z,100.00
2023-03-05T15:21:42.171Z,100.00
2023-03-05T15:24:11.355Z,100.00
2023-03-05T15:26:42.104Z,100.00
2023-03-05T15:29:10.256Z,100.00
2023-03-05T15:32:01.709Z,100.00
2023-03-05T15:34:50.082Z,100.00
2023-03-05T15:37:20.828Z,100.00
2023-03-05T15:39:48.930Z,100.00
2023-03-05T15:42:17.186Z,100.00
2023-03-05T15:44:45.236Z,100.00
2023-03-05T15:47:13.117Z,100.00
2023-03-05T15:49:43.420Z,100.00
2023-03-05T15:52:11.390Z,100.00
2023-03-05T15:54:39.647Z,100.00
2023-03-05T15:57:12.661Z,100.00
2023-03-05T15:59:40.920Z,100.00
2023-03-05T16:02:09.018Z,100.00
2023-03-05T16:04:36.989Z,100.00
2023-03-05T16:07:06.180Z,100.00
2023-03-05T16:09:41.235Z,100.00
2023-03-05T16:12:14.204Z,100.00
2023-03-05T16:14:46.353Z,100.00
2023-03-05T16:17:20.438Z,100.00
2023-03-05T16:19:54.593Z,100.00
2023-03-05T16:22:23.799Z,100.00
2023-03-05T16:24:54.230Z,100.00
2023-03-05T16:27:22.269Z,100.00
2023-03-05T16:29:51.123Z,100.00
2023-03-05T16:32:19.405Z,100.00
2023-03-05T16:34:48.779Z,100.00
2023-03-05T16:37:23.179Z,100.00
2023-03-05T16:39:51.749Z,100.00
2023-03-05T16:42:19.716Z,100.00
2023-03-05T16:44:49.868Z,100.00
2023-03-05T16:47:17.876Z,100.00
2023-03-05T16:49:45.800Z,100.00
2023-03-05T16:52:19.129Z,100.00
2023-03-05T16:54:49.415Z,100.00
2023-03-05T16:57:18.061Z,100.00
2023-03-05T16:59:46.431Z,100.00
2023-03-05T17:02:15.388Z,100.00
2023-03-05T17:04:46.105Z,100.00
2023-03-05T17:07:15.602Z,100.00
2023-03-05T17:09:44.671Z,100.00
2023-03-05T17:12:15.341Z,100.00
2023-03-05T17:14:45.927Z,100.00
2023-03-05T17:17:16.377Z,100.00
2023-03-05T17:19:44.695Z,100.00
2023-03-05T17:22:16.166Z,100.00
2023-03-05T17:24:46.678Z,100.00
2023-03-05T17:27:18.677Z,100.00
2023-03-05T17:29:47.081Z,100.00
2023-03-05T17:32:19.097Z,100.00
2023-03-05T17:34:53.461Z,100.00
2023-03-05T17:37:22.664Z,100.00
2023-03-05T17:39:51.071Z,100.00
2023-03-05T17:42:21.568Z,100.00
2023-03-05T17:44:50.192Z,100.00
2023-03-05T17:47:23.754Z,100.00
2023-03-05T17:49:56.030Z,100.00
2023-03-05T17:52:24.137Z,100.00
2023-03-05T17:54:53.163Z,100.00
2023-03-05T17:57:22.399Z,100.00
2023-03-05T17:59:52.882Z,100.00
2023-03-05T18:02:26.609Z,100.00
2023-03-05T18:04:56.767Z,100.00
2023-03-05T18:07:27.063Z,100.00
2023-03-05T18:09:55.035Z,100.00
2023-03-05T18:12:33.548Z,100.00
2023-03-05T18:15:01.916Z,100.00
2023-03-05T18:17:29.677Z,100.00
2023-03-05T18:20:03.910Z,100.00
2023-03-05T18:22:35.936Z,100.00
2023-03-05T18:25:08.161Z,100.00
2023-03-05T18:27:36.301Z,100.00
2023-03-05T18:30:27.967Z,100.00
2023-03-05T18:32:58.877Z,100.00
2023-03-05T18:35:33.409Z,100.00
2023-03-05T18:38:04.331Z,100.00
2023-03-05T18:40:37.334Z,100.00
2023-03-05T18:43:05.592Z,100.00
2023-03-05T18:45:38.198Z,100.00
2023-03-05T18:48:06.532Z,100.00
2023-03-05T18:51:02.062Z,100.00
2023-03-05T18:53:33.193Z,100.00
2023-03-05T18:56:16.719Z,100.00
2023-03-05T18:58:56.974Z,100.00
2023-03-05T19:01:29.294Z,100.00
2023-03-05T19:03:57.764Z,100.00
2023-03-05T19:06:25.746Z,100.00
2023-03-05T19:09:40.336Z,100.00
2023-03-05T19:12:19.272Z,100.00
2023-03-05T19:14:47.130Z,100.00
2023-03-05T19:17:22.463Z,100.00
2023-03-05T19:20:00.567Z,100.00
2023-03-05T19:22:32.355Z,100.00
2023-03-05T19:25:06.691Z,100.00
2023-03-05T19:27:35.054Z,100.00
2023-03-05T19:30:17.481Z,100.00
2023-03-05T19:32:50.327Z,100.00
2023-03-05T19:35:21.822Z,100.00
2023-03-05T19:37:50.262Z,100.00
2023-03-05T19:40:23.890Z,100.00
2023-03-05T19:42:52.021Z,100.00
2023-03-05T19:45:20.122Z,100.00
2023-03-05T19:47:48.266Z,100.00
2023-03-05T19:50:16.992Z,100.00
2023-03-05T19:52:47.389Z,100.00
2023-03-05T19:55:15.860Z,100.00
2023-03-05T19:58:08.233Z,100.00
2023-03-05T20:00:36.528Z,100.00
2023-03-05T20:03:04.686Z,100.00
2023-03-05T20:05:51.871Z,100.00
2023-03-05T20:09:00.361Z,100.00
2023-03-05T20:11:34.280Z,100.00
2023-03-05T20:14:16.817Z,100.00
2023-03-05T20:16:55.629Z,100.00
2023-03-05T20:19:36.893Z,100.00
2023-03-05T20:22:47.501Z,100.00
2023-03-05T20:25:39.261Z,100.00
2023-03-05T20:28:25.774Z,100.00
2023-03-05T20:31:14.339Z,100.00
2023-03-05T20:33:50.822Z,100.00
2023-03-05T20:36:28.980Z,100.00
2023-03-05T20:38:59.639Z,100.00
2023-03-05T20:41:40.846Z,100.00
2023-03-05T20:44:50.426Z,100.00
2023-03-05T20:47:46.896Z,100.00
2023-03-05T20:50:44.364Z,100.00
2023-03-05T20:53:22.833Z,100.00
2023-03-05T20:55:53.986Z,100.00
2023-03-05T20:58:21.999Z,100.00
2023-03-05T21:01:10.219Z,100.00
2023-03-05T21:03:49.690Z,100.00
2023-03-05T21:06:30.079Z,100.00
2023-03-05T21:08:58.934Z,100.00
2023-03-05T21:11:37.158Z,100.00
2023-03-05T21:14:05.418Z,100.00
2023-03-05T21:16:53.745Z,100.00
2023-03-05T21:19:33.754Z,100.00
2023-03-05T21:22:07.673Z,100.00
2023-03-05T21:25:25.922Z,100.00
2023-03-05T21:28:03.312Z,100.00
2023-03-05T21:30:40.769Z,100.00
2023-03-05T21:33:24.684Z,100.00
2023-03-05T21:35:54.379Z,100.00
2023-03-05T21:38:25.431Z,100.00
2023-03-05T21:40:59.911Z,100.00
2023-03-05T21:43:37.822Z,100.00
2023-03-05T21:46:08.437Z,100.00
2023-03-05T21:48:38.955Z,100.00
2023-03-05T21:51:48.337Z,100.00
2023-03-05T21:54:44.580Z,100.00
2023-03-05T21:57:12.675Z,100.00
2023-03-05T21:59:48.098Z,100.00
2023-03-05T22:02:22.180Z,100.00
2023-03-05T22:04:56.178Z,100.00
2023-03-05T22:08:35.016Z,100.00
2023-03-05T22:11:43.729Z,100.00
2023-03-05T22:14:32.612Z,100.00
2023-03-05T22:17:21.050Z,100.00
2023-03-05T22:19:52.560Z,100.00
2023-03-05T22:22:24.032Z,100.00
2023-03-05T22:24:52.187Z,100.00
2023-03-05T22:27:20.382Z,100.00
2023-03-05T22:30:00.735Z,100.00
2023-03-05T22:32:36.044Z,100.00
2023-03-05T22:35:26.569Z,100.00
2023-03-05T22:37:54.970Z,100.00
2023-03-05T22:40:26.430Z,100.00
2023-03-05T22:42:54.518Z,100.00
2023-03-05T22:45:25.236Z,100.00
2023-03-05T22:47:53.317Z,100.00
2023-03-05T22:50:24.484Z,100.00
2023-03-05T22:53:03.307Z,100.00
2023-03-05T22:55:34.080Z,100.00
2023-03-05T22:58:34.715Z,100.00
2023-03-05T23:01:30.377Z,100.00
2023-03-05T23:04:49.145Z,100.00
2023-03-05T23:07:29.794Z,100.00
2023-03-05T23:10:01.432Z,100.00
2023-03-05T23:12:44.069Z,100.00
2023-03-05T23:15:18.762Z,100.00
2023-03-05T23:18:17.182Z,100.00
2023-03-05T23:21:12.840Z,100.00
2023-03-05T23:23:47.392Z,100.00
2023-03-05T23:26:28.695Z,100.00
2023-03-05T23:29:10.516Z,100.00
2023-03-05T23:32:01.865Z,100.00
2023-03-05T23:34:41.664Z,100.00
2023-03-05T23:37:12.857Z,100.00
2023-03-05T23:40:02.862Z,100.00
2023-03-05T23:42:39.770Z,100.00
2023-03-05T23:45:10.268Z,100.00
2023-03-05T23:47:48.784Z,100.00
2023-03-05T23:50:37.637Z,100.00
2023-03-05T23:53:06.870Z,100.00
2023-03-05T23:55:47.279Z,100.00
2023-03-05T23:58:16.389Z,100.00
